DNEN

Akanu Ibiam International Airport

Enegu, Nigeria
METAR DNEN 180800Z 20003KT 9999 BKN009 26/24 Q1014 NOSIG
Observed Flight Rules
Oct-18 @ 08:00 UTC (8 hours ago) Instrument Flight Rules
Wind Visibility Clouds
200° at 3 knots 10,000+ meters
  • Broken at 900' AGL
Temperatures Readings
Current 26°C / 79°F
Dewpoint 24°C / 75°F
Humidity 89%
Altimeter 29.94" Hg
Pressure 1014 hPa
Elevation 137
METAR DNEN 180800Z 20003KT 9999 BKN009 26/24 Q1014 NOSIG
Observed Flight Rules
Oct-18 @ 08:00 UTC
(8 hours ago)
IFR
Wind Visibility
200° at 3 knots 10,000+ meters
Clouds
  • Broken at 900' AGL
Temperature Dewpoint
26°C / 79°F 24°C / 75°F
Humidity Altimeter Pressure
89% 29.94" Hg 1014 hPa